sensor_id;sensor_type;location;lat;lon;timestamp;P1;durP1;ratioP1;P2;durP2;ratioP2
41480;SDS011;27217;51.220;5.308;2023-03-22T00:00:08;12.43;;;5.47;;
41480;SDS011;27217;51.220;5.308;2023-03-22T00:02:41;10.60;;;4.85;;
41480;SDS011;27217;51.220;5.308;2023-03-22T00:05:06;12.23;;;5.38;;
41480;SDS011;27217;51.220;5.308;2023-03-22T00:07:33;16.27;;;6.07;;
41480;SDS011;27217;51.220;5.308;2023-03-22T00:10:01;16.08;;;6.38;;
41480;SDS011;27217;51.220;5.308;2023-03-22T00:12:27;14.45;;;6.20;;
41480;SDS011;27217;51.220;5.308;2023-03-22T00:14:53;16.88;;;7.88;;
41480;SDS011;27217;51.220;5.308;2023-03-22T00:17:23;9.50;;;6.03;;
41480;SDS011;27217;51.220;5.308;2023-03-22T00:19:50;11.15;;;6.95;;
41480;SDS011;27217;51.220;5.308;2023-03-22T00:22:18;16.27;;;7.68;;
41480;SDS011;27217;51.220;5.308;2023-03-22T00:24:44;15.95;;;7.68;;
41480;SDS011;27217;51.220;5.308;2023-03-22T00:27:11;20.13;;;8.60;;
41480;SDS011;27217;51.220;5.308;2023-03-22T00:29:37;13.65;;;7.57;;
41480;SDS011;27217;51.220;5.308;2023-03-22T00:32:03;20.70;;;8.40;;
41480;SDS011;27217;51.220;5.308;2023-03-22T00:34:29;17.40;;;8.85;;
41480;SDS011;27217;51.220;5.308;2023-03-22T00:36:56;13.55;;;7.97;;
41480;SDS011;27217;51.220;5.308;2023-03-22T00:39:21;18.42;;;9.32;;
41480;SDS011;27217;51.220;5.308;2023-03-22T00:41:48;17.58;;;9.38;;
41480;SDS011;27217;51.220;5.308;2023-03-22T00:44:15;18.10;;;8.77;;
41480;SDS011;27217;51.220;5.308;2023-03-22T00:46:41;19.13;;;8.85;;
41480;SDS011;27217;51.220;5.308;2023-03-22T00:49:07;17.92;;;10.07;;
41480;SDS011;27217;51.220;5.308;2023-03-22T00:51:33;18.48;;;10.18;;
41480;SDS011;27217;51.220;5.308;2023-03-22T00:53:59;18.75;;;9.93;;
41480;SDS011;27217;51.220;5.308;2023-03-22T00:56:26;19.70;;;9.38;;
41480;SDS011;27217;51.220;5.308;2023-03-22T00:58:53;15.82;;;9.25;;
41480;SDS011;27217;51.220;5.308;2023-03-22T01:01:19;18.42;;;9.57;;
41480;SDS011;27217;51.220;5.308;2023-03-22T01:03:45;17.13;;;9.45;;
41480;SDS011;27217;51.220;5.308;2023-03-22T01:06:13;15.20;;;8.55;;
41480;SDS011;27217;51.220;5.308;2023-03-22T01:08:41;14.65;;;8.07;;
41480;SDS011;27217;51.220;5.308;2023-03-22T01:11:08;13.48;;;8.82;;
41480;SDS011;27217;51.220;5.308;2023-03-22T01:13:34;18.55;;;8.27;;
41480;SDS011;27217;51.220;5.308;2023-03-22T01:16:05;13.57;;;7.47;;
41480;SDS011;27217;51.220;5.308;2023-03-22T01:18:34;13.52;;;8.00;;
41480;SDS011;27217;51.220;5.308;2023-03-22T01:21:00;14.68;;;7.55;;
41480;SDS011;27217;51.220;5.308;2023-03-22T01:23:27;16.25;;;7.80;;
41480;SDS011;27217;51.220;5.308;2023-03-22T01:25:53;11.75;;;7.70;;
41480;SDS011;27217;51.220;5.308;2023-03-22T01:28:19;12.45;;;7.28;;
41480;SDS011;27217;51.220;5.308;2023-03-22T01:30:44;13.85;;;7.22;;
41480;SDS011;27217;51.220;5.308;2023-03-22T01:33:10;12.68;;;6.57;;
41480;SDS011;27217;51.220;5.308;2023-03-22T01:35:36;11.10;;;5.93;;
41480;SDS011;27217;51.220;5.308;2023-03-22T01:38:03;12.18;;;6.40;;
41480;SDS011;27217;51.220;5.308;2023-03-22T01:40:28;11.63;;;6.60;;
41480;SDS011;27217;51.220;5.308;2023-03-22T01:42:55;12.43;;;6.35;;
41480;SDS011;27217;51.220;5.308;2023-03-22T01:48:03;13.70;;;6.60;;
41480;SDS011;27217;51.220;5.308;2023-03-22T01:53:39;9.90;;;5.82;;
41480;SDS011;27217;51.220;5.308;2023-03-22T01:56:10;10.80;;;6.53;;
41480;SDS011;27217;51.220;5.308;2023-03-22T01:58:37;14.65;;;5.90;;
41480;SDS011;27217;51.220;5.308;2023-03-22T02:01:05;10.77;;;6.18;;
41480;SDS011;27217;51.220;5.308;2023-03-22T02:03:35;10.75;;;5.97;;
41480;SDS011;27217;51.220;5.308;2023-03-22T02:06:15;13.60;;;5.65;;
41480;SDS011;27217;51.220;5.308;2023-03-22T02:08:44;14.38;;;5.65;;
41480;SDS011;27217;51.220;5.308;2023-03-22T02:11:15;9.70;;;5.75;;
41480;SDS011;27217;51.220;5.308;2023-03-22T02:16:17;12.43;;;5.22;;
41480;SDS011;27217;51.220;5.308;2023-03-22T02:22:05;10.82;;;5.18;;
41480;SDS011;27217;51.220;5.308;2023-03-22T02:32:59;9.05;;;4.43;;
41480;SDS011;27217;51.220;5.308;2023-03-22T02:38:28;7.70;;;4.30;;
41480;SDS011;27217;51.220;5.308;2023-03-22T02:44:08;9.60;;;4.60;;
41480;SDS011;27217;51.220;5.308;2023-03-22T02:46:51;12.52;;;4.55;;
41480;SDS011;27217;51.220;5.308;2023-03-22T02:55:04;11.23;;;4.82;;
41480;SDS011;27217;51.220;5.308;2023-03-22T03:00:13;7.57;;;4.28;;
41480;SDS011;27217;51.220;5.308;2023-03-22T03:02:43;9.20;;;4.63;;
41480;SDS011;27217;51.220;5.308;2023-03-22T03:05:24;8.68;;;4.45;;
41480;SDS011;27217;51.220;5.308;2023-03-22T03:07:56;11.63;;;4.53;;
41480;SDS011;27217;51.220;5.308;2023-03-22T03:10:25;7.53;;;3.67;;
41480;SDS011;27217;51.220;5.308;2023-03-22T03:12:51;8.48;;;3.97;;
41480;SDS011;27217;51.220;5.308;2023-03-22T03:15:18;9.82;;;4.13;;
41480;SDS011;27217;51.220;5.308;2023-03-22T03:18:07;11.07;;;4.03;;
41480;SDS011;27217;51.220;5.308;2023-03-22T03:23:37;11.75;;;4.30;;
41480;SDS011;27217;51.220;5.308;2023-03-22T03:29:01;7.95;;;3.42;;
41480;SDS011;27217;51.220;5.308;2023-03-22T03:34:25;7.60;;;3.60;;
41480;SDS011;27217;51.220;5.308;2023-03-22T03:37:01;9.10;;;3.80;;
41480;SDS011;27217;51.220;5.308;2023-03-22T03:39:45;6.93;;;3.95;;
41480;SDS011;27217;51.220;5.308;2023-03-22T03:42:22;11.40;;;3.88;;
41480;SDS011;27217;51.220;5.308;2023-03-22T03:44:51;10.13;;;3.80;;
41480;SDS011;27217;51.220;5.308;2023-03-22T03:47:17;8.20;;;3.20;;
41480;SDS011;27217;51.220;5.308;2023-03-22T03:49:44;11.77;;;3.90;;
41480;SDS011;27217;51.220;5.308;2023-03-22T03:52:11;11.00;;;3.97;;
41480;SDS011;27217;51.220;5.308;2023-03-22T03:54:37;8.77;;;4.18;;
41480;SDS011;27217;51.220;5.308;2023-03-22T03:57:04;8.82;;;3.42;;
41480;SDS011;27217;51.220;5.308;2023-03-22T03:59:30;14.63;;;4.35;;
41480;SDS011;27217;51.220;5.308;2023-03-22T04:01:56;19.52;;;4.32;;
41480;SDS011;27217;51.220;5.308;2023-03-22T04:04:23;8.48;;;3.60;;
41480;SDS011;27217;51.220;5.308;2023-03-22T04:06:52;13.00;;;3.58;;
41480;SDS011;27217;51.220;5.308;2023-03-22T04:09:21;6.88;;;3.25;;
41480;SDS011;27217;51.220;5.308;2023-03-22T04:11:48;12.55;;;4.13;;
41480;SDS011;27217;51.220;5.308;2023-03-22T04:14:14;6.65;;;3.17;;
41480;SDS011;27217;51.220;5.308;2023-03-22T04:16:40;7.63;;;3.10;;
41480;SDS011;27217;51.220;5.308;2023-03-22T04:19:06;9.45;;;2.95;;
41480;SDS011;27217;51.220;5.308;2023-03-22T04:21:31;9.90;;;3.15;;
41480;SDS011;27217;51.220;5.308;2023-03-22T04:23:58;14.15;;;3.50;;
41480;SDS011;27217;51.220;5.308;2023-03-22T04:26:24;9.15;;;4.30;;
41480;SDS011;27217;51.220;5.308;2023-03-22T04:28:50;8.13;;;4.05;;
41480;SDS011;27217;51.220;5.308;2023-03-22T04:31:16;8.98;;;2.92;;
41480;SDS011;27217;51.220;5.308;2023-03-22T04:33:42;7.60;;;3.08;;
41480;SDS011;27217;51.220;5.308;2023-03-22T04:36:11;6.70;;;3.22;;
41480;SDS011;27217;51.220;5.308;2023-03-22T04:38:41;12.68;;;3.80;;
41480;SDS011;27217;51.220;5.308;2023-03-22T04:41:08;7.25;;;2.92;;
41480;SDS011;27217;51.220;5.308;2023-03-22T04:43:39;9.15;;;3.05;;
41480;SDS011;27217;51.220;5.308;2023-03-22T04:46:06;7.10;;;2.97;;
41480;SDS011;27217;51.220;5.308;2023-03-22T04:48:35;13.13;;;3.40;;
41480;SDS011;27217;51.220;5.308;2023-03-22T04:51:02;11.57;;;2.67;;
41480;SDS011;27217;51.220;5.308;2023-03-22T04:53:32;7.60;;;3.25;;
41480;SDS011;27217;51.220;5.308;2023-03-22T04:56:06;7.35;;;3.15;;
41480;SDS011;27217;51.220;5.308;2023-03-22T05:01:02;12.48;;;3.10;;
41480;SDS011;27217;51.220;5.308;2023-03-22T05:03:28;9.40;;;2.78;;
41480;SDS011;27217;51.220;5.308;2023-03-22T05:05:57;6.90;;;3.00;;
41480;SDS011;27217;51.220;5.308;2023-03-22T05:08:25;8.68;;;2.83;;
41480;SDS011;27217;51.220;5.308;2023-03-22T05:10:53;10.23;;;3.35;;
41480;SDS011;27217;51.220;5.308;2023-03-22T05:13:22;13.43;;;3.10;;
41480;SDS011;27217;51.220;5.308;2023-03-22T05:15:49;4.15;;;2.40;;
41480;SDS011;27217;51.220;5.308;2023-03-22T05:18:16;11.93;;;3.47;;
41480;SDS011;27217;51.220;5.308;2023-03-22T05:20:48;13.80;;;3.80;;
41480;SDS011;27217;51.220;5.308;2023-03-22T05:23:15;10.25;;;3.10;;
41480;SDS011;27217;51.220;5.308;2023-03-22T05:25:45;10.45;;;3.45;;
41480;SDS011;27217;51.220;5.308;2023-03-22T05:28:12;11.02;;;3.40;;
41480;SDS011;27217;51.220;5.308;2023-03-22T05:30:41;8.88;;;3.50;;
41480;SDS011;27217;51.220;5.308;2023-03-22T05:33:08;10.57;;;3.05;;
41480;SDS011;27217;51.220;5.308;2023-03-22T05:35:35;10.50;;;3.25;;
41480;SDS011;27217;51.220;5.308;2023-03-22T05:38:02;10.65;;;3.08;;
41480;SDS011;27217;51.220;5.308;2023-03-22T05:40:30;7.72;;;3.13;;
41480;SDS011;27217;51.220;5.308;2023-03-22T05:42:56;15.80;;;2.55;;
41480;SDS011;27217;51.220;5.308;2023-03-22T05:45:23;11.15;;;3.03;;
41480;SDS011;27217;51.220;5.308;2023-03-22T05:47:49;17.45;;;3.58;;
41480;SDS011;27217;51.220;5.308;2023-03-22T05:50:17;9.50;;;2.75;;
41480;SDS011;27217;51.220;5.308;2023-03-22T05:52:46;15.73;;;4.00;;
41480;SDS011;27217;51.220;5.308;2023-03-22T05:55:14;14.73;;;3.03;;
41480;SDS011;27217;51.220;5.308;2023-03-22T05:57:43;8.48;;;3.35;;
41480;SDS011;27217;51.220;5.308;2023-03-22T06:00:11;10.77;;;3.45;;
41480;SDS011;27217;51.220;5.308;2023-03-22T06:02:40;9.30;;;2.63;;
41480;SDS011;27217;51.220;5.308;2023-03-22T06:05:07;10.60;;;2.90;;
41480;SDS011;27217;51.220;5.308;2023-03-22T06:07:35;6.18;;;3.22;;
41480;SDS011;27217;51.220;5.308;2023-03-22T06:10:03;9.45;;;3.40;;
41480;SDS011;27217;51.220;5.308;2023-03-22T06:12:31;13.15;;;3.28;;
41480;SDS011;27217;51.220;5.308;2023-03-22T06:14:57;7.30;;;2.72;;
41480;SDS011;27217;51.220;5.308;2023-03-22T06:17:23;12.07;;;2.95;;
41480;SDS011;27217;51.220;5.308;2023-03-22T06:19:49;13.07;;;3.15;;
41480;SDS011;27217;51.220;5.308;2023-03-22T06:22:16;12.07;;;2.88;;
41480;SDS011;27217;51.220;5.308;2023-03-22T06:24:42;8.88;;;2.90;;
41480;SDS011;27217;51.220;5.308;2023-03-22T06:27:09;7.68;;;2.78;;
41480;SDS011;27217;51.220;5.308;2023-03-22T06:29:35;8.00;;;2.83;;
41480;SDS011;27217;51.220;5.308;2023-03-22T06:32:02;7.28;;;2.33;;
41480;SDS011;27217;51.220;5.308;2023-03-22T06:34:28;12.85;;;2.97;;
41480;SDS011;27217;51.220;5.308;2023-03-22T06:36:54;16.10;;;3.55;;
41480;SDS011;27217;51.220;5.308;2023-03-22T06:39:20;10.57;;;2.70;;
41480;SDS011;27217;51.220;5.308;2023-03-22T06:41:47;10.18;;;2.83;;
41480;SDS011;27217;51.220;5.308;2023-03-22T06:44:13;10.23;;;2.70;;
41480;SDS011;27217;51.220;5.308;2023-03-22T06:46:40;9.73;;;2.78;;
41480;SDS011;27217;51.220;5.308;2023-03-22T06:49:06;13.23;;;2.88;;
41480;SDS011;27217;51.220;5.308;2023-03-22T06:51:32;9.35;;;2.95;;
41480;SDS011;27217;51.220;5.308;2023-03-22T06:53:58;11.57;;;2.78;;
41480;SDS011;27217;51.220;5.308;2023-03-22T06:56:25;10.80;;;3.08;;
41480;SDS011;27217;51.220;5.308;2023-03-22T06:58:51;12.88;;;3.05;;
41480;SDS011;27217;51.220;5.308;2023-03-22T07:01:18;11.23;;;3.40;;
41480;SDS011;27217;51.220;5.308;2023-03-22T07:03:45;11.88;;;2.80;;
41480;SDS011;27217;51.220;5.308;2023-03-22T07:06:11;9.38;;;2.85;;
41480;SDS011;27217;51.220;5.308;2023-03-22T07:08:37;9.27;;;2.90;;
41480;SDS011;27217;51.220;5.308;2023-03-22T07:11:04;9.85;;;2.10;;
41480;SDS011;27217;51.220;5.308;2023-03-22T07:13:31;8.50;;;2.72;;
41480;SDS011;27217;51.220;5.308;2023-03-22T07:15:58;15.00;;;2.97;;
41480;SDS011;27217;51.220;5.308;2023-03-22T07:18:25;15.15;;;2.75;;
41480;SDS011;27217;51.220;5.308;2023-03-22T07:20:51;13.32;;;2.38;;
41480;SDS011;27217;51.220;5.308;2023-03-22T07:23:18;8.75;;;2.40;;
41480;SDS011;27217;51.220;5.308;2023-03-22T07:25:44;18.02;;;3.22;;
41480;SDS011;27217;51.220;5.308;2023-03-22T07:28:11;7.97;;;2.22;;
41480;SDS011;27217;51.220;5.308;2023-03-22T07:30:38;16.33;;;3.25;;
41480;SDS011;27217;51.220;5.308;2023-03-22T07:33:05;12.32;;;3.08;;
41480;SDS011;27217;51.220;5.308;2023-03-22T07:35:32;8.70;;;2.55;;
41480;SDS011;27217;51.220;5.308;2023-03-22T07:38:00;12.75;;;2.70;;
41480;SDS011;27217;51.220;5.308;2023-03-22T07:40:25;15.45;;;3.20;;
41480;SDS011;27217;51.220;5.308;2023-03-22T07:42:51;10.73;;;3.35;;
41480;SDS011;27217;51.220;5.308;2023-03-22T07:45:17;15.60;;;2.67;;
41480;SDS011;27217;51.220;5.308;2023-03-22T07:47:44;15.15;;;3.17;;
41480;SDS011;27217;51.220;5.308;2023-03-22T07:50:11;9.05;;;2.55;;
41480;SDS011;27217;51.220;5.308;2023-03-22T07:52:40;8.05;;;2.50;;
41480;SDS011;27217;51.220;5.308;2023-03-22T07:55:07;12.80;;;2.22;;
41480;SDS011;27217;51.220;5.308;2023-03-22T07:57:35;10.50;;;2.30;;
41480;SDS011;27217;51.220;5.308;2023-03-22T08:00:01;6.15;;;2.25;;
41480;SDS011;27217;51.220;5.308;2023-03-22T08:02:30;5.15;;;1.85;;
41480;SDS011;27217;51.220;5.308;2023-03-22T08:04:56;7.95;;;2.20;;
41480;SDS011;27217;51.220;5.308;2023-03-22T08:07:22;8.07;;;2.05;;
41480;SDS011;27217;51.220;5.308;2023-03-22T08:10:08;6.78;;;2.28;;
41480;SDS011;27217;51.220;5.308;2023-03-22T08:12:34;6.85;;;2.00;;
41480;SDS011;27217;51.220;5.308;2023-03-22T08:15:00;12.07;;;2.00;;
41480;SDS011;27217;51.220;5.308;2023-03-22T08:17:27;10.57;;;1.80;;
41480;SDS011;27217;51.220;5.308;2023-03-22T08:19:54;6.13;;;1.92;;
41480;SDS011;27217;51.220;5.308;2023-03-22T08:22:21;14.05;;;2.50;;
41480;SDS011;27217;51.220;5.308;2023-03-22T08:24:49;9.32;;;2.00;;
41480;SDS011;27217;51.220;5.308;2023-03-22T08:27:16;11.65;;;2.20;;
41480;SDS011;27217;51.220;5.308;2023-03-22T08:29:42;11.57;;;1.95;;
41480;SDS011;27217;51.220;5.308;2023-03-22T08:32:08;16.65;;;2.85;;
41480;SDS011;27217;51.220;5.308;2023-03-22T08:34:38;10.60;;;2.40;;
41480;SDS011;27217;51.220;5.308;2023-03-22T08:37:05;8.20;;;2.10;;
41480;SDS011;27217;51.220;5.308;2023-03-22T08:39:31;11.00;;;2.35;;
41480;SDS011;27217;51.220;5.308;2023-03-22T08:41:57;6.78;;;1.83;;
41480;SDS011;27217;51.220;5.308;2023-03-22T08:44:23;13.60;;;2.10;;
41480;SDS011;27217;51.220;5.308;2023-03-22T08:46:50;13.38;;;3.20;;
41480;SDS011;27217;51.220;5.308;2023-03-22T08:49:16;6.60;;;1.90;;
41480;SDS011;27217;51.220;5.308;2023-03-22T08:51:42;12.65;;;2.58;;
41480;SDS011;27217;51.220;5.308;2023-03-22T08:54:08;17.80;;;3.17;;
41480;SDS011;27217;51.220;5.308;2023-03-22T08:56:35;9.25;;;1.83;;
41480;SDS011;27217;51.220;5.308;2023-03-22T08:59:02;8.60;;;2.20;;
41480;SDS011;27217;51.220;5.308;2023-03-22T09:01:29;9.95;;;2.00;;
41480;SDS011;27217;51.220;5.308;2023-03-22T09:03:55;10.70;;;2.30;;
41480;SDS011;27217;51.220;5.308;2023-03-22T09:06:21;9.95;;;2.13;;
41480;SDS011;27217;51.220;5.308;2023-03-22T09:08:48;12.85;;;2.15;;
41480;SDS011;27217;51.220;5.308;2023-03-22T09:11:16;10.38;;;1.60;;
41480;SDS011;27217;51.220;5.308;2023-03-22T09:13:43;19.23;;;2.60;;
41480;SDS011;27217;51.220;5.308;2023-03-22T09:16:09;13.27;;;2.35;;
41480;SDS011;27217;51.220;5.308;2023-03-22T09:18:35;12.30;;;2.85;;
41480;SDS011;27217;51.220;5.308;2023-03-22T09:21:02;11.13;;;1.83;;
41480;SDS011;27217;51.220;5.308;2023-03-22T09:23:29;13.18;;;2.17;;
41480;SDS011;27217;51.220;5.308;2023-03-22T09:25:58;7.80;;;1.83;;
41480;SDS011;27217;51.220;5.308;2023-03-22T09:28:24;11.63;;;2.00;;
41480;SDS011;27217;51.220;5.308;2023-03-22T09:30:50;7.82;;;2.33;;
41480;SDS011;27217;51.220;5.308;2023-03-22T09:33:16;7.53;;;2.63;;
41480;SDS011;27217;51.220;5.308;2023-03-22T09:35:42;12.98;;;2.25;;
41480;SDS011;27217;51.220;5.308;2023-03-22T09:38:08;5.43;;;1.40;;
41480;SDS011;27217;51.220;5.308;2023-03-22T09:40:34;10.10;;;1.80;;
41480;SDS011;27217;51.220;5.308;2023-03-22T09:43:08;15.60;;;2.17;;
41480;SDS011;27217;51.220;5.308;2023-03-22T09:45:42;6.32;;;1.60;;
41480;SDS011;27217;51.220;5.308;2023-03-22T09:48:18;15.23;;;2.37;;
41480;SDS011;27217;51.220;5.308;2023-03-22T09:50:48;13.18;;;2.40;;
41480;SDS011;27217;51.220;5.308;2023-03-22T09:53:17;10.15;;;2.03;;
41480;SDS011;27217;51.220;5.308;2023-03-22T10:02:03;7.40;;;1.58;;
41480;SDS011;27217;51.220;5.308;2023-03-22T10:10:22;12.95;;;2.83;;
41480;SDS011;27217;51.220;5.308;2023-03-22T10:12:53;4.70;;;1.50;;
41480;SDS011;27217;51.220;5.308;2023-03-22T10:15:39;13.88;;;2.05;;
41480;SDS011;27217;51.220;5.308;2023-03-22T10:18:15;8.88;;;2.22;;
41480;SDS011;27217;51.220;5.308;2023-03-22T10:21:03;7.95;;;1.40;;
41480;SDS011;27217;51.220;5.308;2023-03-22T10:26:26;9.57;;;2.35;;
41480;SDS011;27217;51.220;5.308;2023-03-22T10:29:00;6.25;;;1.63;;
41480;SDS011;27217;51.220;5.308;2023-03-22T10:31:28;15.15;;;1.67;;
41480;SDS011;27217;51.220;5.308;2023-03-22T10:33:57;20.33;;;2.78;;
41480;SDS011;27217;51.220;5.308;2023-03-22T10:36:46;6.53;;;2.00;;
41480;SDS011;27217;51.220;5.308;2023-03-22T10:39:19;8.30;;;1.77;;
41480;SDS011;27217;51.220;5.308;2023-03-22T10:41:54;9.95;;;2.13;;
41480;SDS011;27217;51.220;5.308;2023-03-22T10:44:22;5.30;;;1.83;;
41480;SDS011;27217;51.220;5.308;2023-03-22T10:46:54;13.48;;;2.22;;
41480;SDS011;27217;51.220;5.308;2023-03-22T10:49:28;8.63;;;1.65;;
41480;SDS011;27217;51.220;5.308;2023-03-22T10:54:46;5.53;;;2.15;;
41480;SDS011;27217;51.220;5.308;2023-03-22T10:57:12;7.82;;;1.95;;
41480;SDS011;27217;51.220;5.308;2023-03-22T10:59:49;16.58;;;2.25;;
41480;SDS011;27217;51.220;5.308;2023-03-22T11:05:18;7.20;;;1.73;;
41480;SDS011;27217;51.220;5.308;2023-03-22T11:07:47;10.07;;;2.00;;
41480;SDS011;27217;51.220;5.308;2023-03-22T11:10:33;9.13;;;1.90;;
41480;SDS011;27217;51.220;5.308;2023-03-22T11:13:18;8.10;;;1.92;;
41480;SDS011;27217;51.220;5.308;2023-03-22T11:15:49;6.80;;;2.78;;
41480;SDS011;27217;51.220;5.308;2023-03-22T11:18:18;12.20;;;2.28;;
41480;SDS011;27217;51.220;5.308;2023-03-22T11:21:06;9.18;;;2.00;;
41480;SDS011;27217;51.220;5.308;2023-03-22T11:23:34;10.50;;;2.75;;
41480;SDS011;27217;51.220;5.308;2023-03-22T11:26:06;13.55;;;3.25;;
41480;SDS011;27217;51.220;5.308;2023-03-22T11:28:35;7.18;;;2.67;;
41480;SDS011;27217;51.220;5.308;2023-03-22T11:31:12;9.52;;;2.33;;
41480;SDS011;27217;51.220;5.308;2023-03-22T11:36:23;4.93;;;2.22;;
41480;SDS011;27217;51.220;5.308;2023-03-22T11:38:58;6.90;;;1.67;;
41480;SDS011;27217;51.220;5.308;2023-03-22T11:41:29;4.05;;;1.67;;
41480;SDS011;27217;51.220;5.308;2023-03-22T11:44:11;8.13;;;1.55;;
41480;SDS011;27217;51.220;5.308;2023-03-22T11:46:47;12.32;;;1.75;;
41480;SDS011;27217;51.220;5.308;2023-03-22T11:49:17;6.57;;;1.50;;
41480;SDS011;27217;51.220;5.308;2023-03-22T11:51:43;6.68;;;2.08;;
41480;SDS011;27217;51.220;5.308;2023-03-22T11:54:29;4.10;;;1.27;;
41480;SDS011;27217;51.220;5.308;2023-03-22T11:56:59;3.80;;;1.25;;
41480;SDS011;27217;51.220;5.308;2023-03-22T11:59:52;4.03;;;1.35;;
41480;SDS011;27217;51.220;5.308;2023-03-22T12:02:27;3.70;;;1.30;;
41480;SDS011;27217;51.220;5.308;2023-03-22T12:05:07;9.90;;;2.25;;
41480;SDS011;27217;51.220;5.308;2023-03-22T12:07:42;5.28;;;1.77;;
41480;SDS011;27217;51.220;5.308;2023-03-22T12:10:14;10.73;;;1.50;;
41480;SDS011;27217;51.220;5.308;2023-03-22T12:12:47;4.90;;;1.48;;
41480;SDS011;27217;51.220;5.308;2023-03-22T12:15:28;7.05;;;1.25;;
41480;SDS011;27217;51.220;5.308;2023-03-22T12:20:32;12.13;;;2.65;;
41480;SDS011;27217;51.220;5.308;2023-03-22T12:23:19;5.88;;;1.45;;
41480;SDS011;27217;51.220;5.308;2023-03-22T12:25:52;7.45;;;2.17;;
41480;SDS011;27217;51.220;5.308;2023-03-22T12:34:00;4.20;;;1.30;;
41480;SDS011;27217;51.220;5.308;2023-03-22T12:36:42;9.05;;;2.00;;
41480;SDS011;27217;51.220;5.308;2023-03-22T12:40:00;4.72;;;1.15;;
41480;SDS011;27217;51.220;5.308;2023-03-22T12:42:12;12.00;;;1.77;;
41480;SDS011;27217;51.220;5.308;2023-03-22T12:44:47;4.68;;;1.13;;
41480;SDS011;27217;51.220;5.308;2023-03-22T12:47:24;9.40;;;1.75;;
41480;SDS011;27217;51.220;5.308;2023-03-22T12:50:51;7.25;;;1.40;;
41480;SDS011;27217;51.220;5.308;2023-03-22T12:52:57;5.00;;;1.58;;
41480;SDS011;27217;51.220;5.308;2023-03-22T12:55:25;9.20;;;1.77;;
41480;SDS011;27217;51.220;5.308;2023-03-22T12:57:54;9.77;;;2.50;;
41480;SDS011;27217;51.220;5.308;2023-03-22T13:00:25;9.52;;;1.88;;
41480;SDS011;27217;51.220;5.308;2023-03-22T13:02:59;10.10;;;2.33;;
41480;SDS011;27217;51.220;5.308;2023-03-22T13:05:49;8.57;;;2.00;;
41480;SDS011;27217;51.220;5.308;2023-03-22T13:08:25;6.18;;;1.65;;
41480;SDS011;27217;51.220;5.308;2023-03-22T13:11:30;13.18;;;2.33;;
41480;SDS011;27217;51.220;5.308;2023-03-22T13:13:56;5.13;;;1.75;;
41480;SDS011;27217;51.220;5.308;2023-03-22T13:16:21;6.80;;;2.05;;
41480;SDS011;27217;51.220;5.308;2023-03-22T13:19:15;7.43;;;2.88;;
41480;SDS011;27217;51.220;5.308;2023-03-22T13:21:50;8.02;;;2.00;;
41480;SDS011;27217;51.220;5.308;2023-03-22T13:27:41;17.33;;;2.90;;
41480;SDS011;27217;51.220;5.308;2023-03-22T13:32:49;8.65;;;2.72;;
41480;SDS011;27217;51.220;5.308;2023-03-22T13:35:34;6.15;;;1.80;;
41480;SDS011;27217;51.220;5.308;2023-03-22T13:38:29;8.20;;;1.75;;
41480;SDS011;27217;51.220;5.308;2023-03-22T13:43:49;7.28;;;2.10;;
41480;SDS011;27217;51.220;5.308;2023-03-22T13:56:30;9.45;;;2.78;;
41480;SDS011;27217;51.220;5.308;2023-03-22T13:59:07;7.97;;;2.10;;
41480;SDS011;27217;51.220;5.308;2023-03-22T14:01:42;12.82;;;2.97;;
41480;SDS011;27217;51.220;5.308;2023-03-22T14:10:21;8.48;;;2.45;;
41480;SDS011;27217;51.220;5.308;2023-03-22T14:13:25;12.30;;;2.83;;
41480;SDS011;27217;51.220;5.308;2023-03-22T14:16:02;12.90;;;2.83;;
41480;SDS011;27217;51.220;5.308;2023-03-22T14:18:32;13.63;;;3.63;;
41480;SDS011;27217;51.220;5.308;2023-03-22T14:21:05;10.45;;;3.28;;
41480;SDS011;27217;51.220;5.308;2023-03-22T14:23:35;10.68;;;3.00;;
41480;SDS011;27217;51.220;5.308;2023-03-22T14:26:18;7.72;;;2.63;;
41480;SDS011;27217;51.220;5.308;2023-03-22T14:29:16;13.50;;;3.55;;
41480;SDS011;27217;51.220;5.308;2023-03-22T14:31:57;14.07;;;2.75;;
41480;SDS011;27217;51.220;5.308;2023-03-22T14:34:28;7.18;;;2.50;;
41480;SDS011;27217;51.220;5.308;2023-03-22T14:36:58;8.68;;;2.25;;
41480;SDS011;27217;51.220;5.308;2023-03-22T14:39:38;13.20;;;3.00;;
41480;SDS011;27217;51.220;5.308;2023-03-22T14:44:48;6.03;;;2.40;;
41480;SDS011;27217;51.220;5.308;2023-03-22T14:47:18;2.80;;;1.85;;
41480;SDS011;27217;51.220;5.308;2023-03-22T14:50:11;11.32;;;2.80;;
41480;SDS011;27217;51.220;5.308;2023-03-22T14:52:41;7.55;;;2.35;;
41480;SDS011;27217;51.220;5.308;2023-03-22T14:55:13;8.70;;;2.40;;
41480;SDS011;27217;51.220;5.308;2023-03-22T14:57:48;7.05;;;2.03;;
41480;SDS011;27217;51.220;5.308;2023-03-22T15:00:22;8.95;;;2.15;;
41480;SDS011;27217;51.220;5.308;2023-03-22T15:05:49;6.85;;;1.83;;
41480;SDS011;27217;51.220;5.308;2023-03-22T15:10:47;12.55;;;2.72;;
41480;SDS011;27217;51.220;5.308;2023-03-22T15:13:21;8.50;;;2.30;;
41480;SDS011;27217;51.220;5.308;2023-03-22T15:15:49;10.55;;;2.75;;
41480;SDS011;27217;51.220;5.308;2023-03-22T15:18:17;8.23;;;2.63;;
41480;SDS011;27217;51.220;5.308;2023-03-22T15:20:45;4.78;;;1.98;;
41480;SDS011;27217;51.220;5.308;2023-03-22T15:23:22;5.40;;;2.20;;
41480;SDS011;27217;51.220;5.308;2023-03-22T15:26:05;9.38;;;2.63;;
41480;SDS011;27217;51.220;5.308;2023-03-22T15:28:40;8.57;;;2.95;;
41480;SDS011;27217;51.220;5.308;2023-03-22T15:31:22;5.43;;;2.58;;
41480;SDS011;27217;51.220;5.308;2023-03-22T15:33:52;5.55;;;2.20;;
41480;SDS011;27217;51.220;5.308;2023-03-22T15:36:19;11.15;;;2.78;;
41480;SDS011;27217;51.220;5.308;2023-03-22T15:38:46;15.75;;;3.58;;
41480;SDS011;27217;51.220;5.308;2023-03-22T15:44:03;4.55;;;1.63;;
41480;SDS011;27217;51.220;5.308;2023-03-22T15:46:59;6.78;;;1.90;;
41480;SDS011;27217;51.220;5.308;2023-03-22T15:54:33;10.43;;;2.40;;
41480;SDS011;27217;51.220;5.308;2023-03-22T15:57:07;7.47;;;2.60;;
41480;SDS011;27217;51.220;5.308;2023-03-22T15:59:46;9.07;;;2.17;;
41480;SDS011;27217;51.220;5.308;2023-03-22T16:02:26;5.75;;;2.40;;
41480;SDS011;27217;51.220;5.308;2023-03-22T16:04:55;7.65;;;2.40;;
41480;SDS011;27217;51.220;5.308;2023-03-22T16:07:23;6.50;;;2.63;;
41480;SDS011;27217;51.220;5.308;2023-03-22T16:09:51;9.68;;;2.17;;
41480;SDS011;27217;51.220;5.308;2023-03-22T16:12:18;7.20;;;2.40;;
41480;SDS011;27217;51.220;5.308;2023-03-22T16:14:44;10.30;;;2.40;;
41480;SDS011;27217;51.220;5.308;2023-03-22T16:17:17;10.25;;;2.40;;
41480;SDS011;27217;51.220;5.308;2023-03-22T16:19:45;12.20;;;3.75;;
41480;SDS011;27217;51.220;5.308;2023-03-22T16:22:11;9.05;;;2.65;;
41480;SDS011;27217;51.220;5.308;2023-03-22T16:24:39;6.20;;;2.28;;
41480;SDS011;27217;51.220;5.308;2023-03-22T16:27:10;8.07;;;2.80;;
41480;SDS011;27217;51.220;5.308;2023-03-22T16:29:38;7.03;;;3.22;;
41480;SDS011;27217;51.220;5.308;2023-03-22T16:32:04;6.35;;;2.95;;
41480;SDS011;27217;51.220;5.308;2023-03-22T16:34:30;14.07;;;4.20;;
41480;SDS011;27217;51.220;5.308;2023-03-22T16:36:56;10.45;;;3.70;;
41480;SDS011;27217;51.220;5.308;2023-03-22T16:39:22;8.95;;;3.83;;
41480;SDS011;27217;51.220;5.308;2023-03-22T16:41:48;12.18;;;3.67;;
41480;SDS011;27217;51.220;5.308;2023-03-22T16:44:15;11.60;;;4.45;;
41480;SDS011;27217;51.220;5.308;2023-03-22T16:46:42;10.43;;;4.57;;
41480;SDS011;27217;51.220;5.308;2023-03-22T16:49:09;11.80;;;4.72;;
41480;SDS011;27217;51.220;5.308;2023-03-22T16:51:35;18.25;;;5.15;;
41480;SDS011;27217;51.220;5.308;2023-03-22T16:54:04;13.07;;;4.93;;
41480;SDS011;27217;51.220;5.308;2023-03-22T16:56:33;14.32;;;4.57;;